RKSI/ICN METAR and TAF weather

Enter ICAO airport designator
Station Type Date Time Source
RKSI METAR 2020/12/05 06:00 UTC NOAA

RKSI 050600Z 32005KT 280V350 9999 FEW040 BKN200 06/M04 Q1029 NOSIG


Station Type Date Time Source
RKSI Decoded METAR 2020/12/05 06:00 UTC NOAA

Incheon International Airport, Korea, South (RKSI) 37-28N 126-27E
Dec 05, 2020 - 01:00 AM EST / 2020.12.05 0600 UTC
Wind: from the NW (320 degrees) at 6 MPH (5 KT) (direction variable):0
Visibility: greater than 7 mile(s):0
Sky conditions: mostly cloudy
Temperature: 42 F (6 C)
Dew Point: 24 F (-4 C)
Relative Humidity: 48%
Pressure (altimeter): 30.39 in. Hg (1029 hPa)
ob: RKSI 050600Z 32005KT 280V350 9999 FEW040 BKN200 06/M04 Q1029 NOSIG
cycle: 6

Station Type Date Time Source
RKSI TAF 2020/12/05 06:06 UTC NOAA

TAF RKSI 050500Z 0506/0612 32006KT 9999 SCT040 BKN200 TN02/0521Z TX08/0606Z
BECMG 0507/0508 SCT030 BKN070
BECMG 0517/0518 14005KT 6000
BECMG 0601/0602 28008KT 9999 SCT040

Example: see airport list